sensor_id;sensor_type;location;lat;lon;timestamp;pressure;altitude;pressure_sealevel;temperature;humidity
7614;BME280;3848;42.016;23.098;2022-12-16T00:00:11;96946.63;;;7.63;100.00
7614;BME280;3848;42.016;23.098;2022-12-16T00:02:39;96944.94;;;7.55;100.00
7614;BME280;3848;42.016;23.098;2022-12-16T00:05:07;96952.53;;;7.52;100.00
7614;BME280;3848;42.016;23.098;2022-12-16T00:07:34;96941.53;;;7.45;100.00
7614;BME280;3848;42.016;23.098;2022-12-16T00:10:01;96943.22;;;7.46;100.00
7614;BME280;3848;42.016;23.098;2022-12-16T00:12:28;96932.28;;;7.47;100.00
7614;BME280;3848;42.016;23.098;2022-12-16T00:14:55;96944.94;;;7.61;100.00
7614;BME280;3848;42.016;23.098;2022-12-16T00:17:22;96942.38;;;7.69;100.00
7614;BME280;3848;42.016;23.098;2022-12-16T00:19:48;96939.03;;;7.79;100.00
7614;BME280;3848;42.016;23.098;2022-12-16T00:22:16;96939.88;;;7.73;100.00
7614;BME280;3848;42.016;23.098;2022-12-16T00:24:43;96933.13;;;7.77;100.00
7614;BME280;3848;42.016;23.098;2022-12-16T00:27:10;96941.56;;;7.79;100.00
7614;BME280;3848;42.016;23.098;2022-12-16T00:29:37;96940.72;;;7.78;100.00
7614;BME280;3848;42.016;23.098;2022-12-16T00:32:04;96945.78;;;7.83;100.00
7614;BME280;3848;42.016;23.098;2022-12-16T00:34:31;96935.66;;;7.86;100.00
7614;BME280;3848;42.016;23.098;2022-12-16T00:36:58;96939.03;;;7.86;100.00
7614;BME280;3848;42.016;23.098;2022-12-16T00:39:26;96940.69;;;7.89;100.00
7614;BME280;3848;42.016;23.098;2022-12-16T00:41:52;96932.28;;;7.93;100.00
7614;BME280;3848;42.016;23.098;2022-12-16T00:44:19;96937.34;;;7.93;100.00
7614;BME280;3848;42.016;23.098;2022-12-16T00:46:46;96945.78;;;7.97;100.00
7614;BME280;3848;42.016;23.098;2022-12-16T00:49:13;96945.78;;;7.95;100.00
7614;BME280;3848;42.016;23.098;2022-12-16T00:51:39;96940.72;;;7.93;100.00
7614;BME280;3848;42.016;23.098;2022-12-16T00:54:06;96940.72;;;7.97;100.00
7614;BME280;3848;42.016;23.098;2022-12-16T00:56:34;96944.94;;;7.98;100.00
7614;BME280;3848;42.016;23.098;2022-12-16T00:59:01;96944.09;;;7.99;100.00
7614;BME280;3848;42.016;23.098;2022-12-16T01:01:28;96938.16;;;8.03;100.00
7614;BME280;3848;42.016;23.098;2022-12-16T01:03:55;96944.06;;;8.03;100.00
7614;BME280;3848;42.016;23.098;2022-12-16T01:06:22;96940.69;;;8.04;100.00
7614;BME280;3848;42.016;23.098;2022-12-16T01:08:49;96894.34;;;7.81;100.00
7614;BME280;3848;42.016;23.098;2022-12-16T01:11:17;96916.25;;;8.02;100.00
7614;BME280;3848;42.016;23.098;2022-12-16T01:13:48;96914.53;;;8.07;100.00
7614;BME280;3848;42.016;23.098;2022-12-16T01:16:16;96908.63;;;8.09;100.00
7614;BME280;3848;42.016;23.098;2022-12-16T01:18:43;96855.56;;;7.80;100.00
7614;BME280;3848;42.016;23.098;2022-12-16T01:21:12;96897.66;;;8.09;100.00
7614;BME280;3848;42.016;23.098;2022-12-16T01:23:40;96894.34;;;7.94;100.00
7614;BME280;3848;42.016;23.098;2022-12-16T01:26:06;96904.44;;;7.99;100.00
7614;BME280;3848;42.016;23.098;2022-12-16T01:28:34;96898.53;;;8.03;100.00
7614;BME280;3848;42.016;23.098;2022-12-16T01:31:02;96893.47;;;8.05;100.00
7614;BME280;3848;42.016;23.098;2022-12-16T01:33:30;96894.31;;;8.01;100.00
7614;BME280;3848;42.016;23.098;2022-12-16T01:36:03;96891.78;;;8.01;100.00
7614;BME280;3848;42.016;23.098;2022-12-16T01:38:31;96889.25;;;8.02;100.00
7614;BME280;3848;42.016;23.098;2022-12-16T01:40:58;96885.91;;;7.99;100.00
7614;BME280;3848;42.016;23.098;2022-12-16T01:43:26;96788.19;;;7.53;100.00
7614;BME280;3848;42.016;23.098;2022-12-16T01:45:56;96872.38;;;8.07;100.00
7614;BME280;3848;42.016;23.098;2022-12-16T01:48:34;96879.13;;;8.08;100.00
7614;BME280;3848;42.016;23.098;2022-12-16T01:51:06;96874.91;;;8.09;100.00
7614;BME280;3848;42.016;23.098;2022-12-16T01:53:35;96875.72;;;8.09;100.00
7614;BME280;3848;42.016;23.098;2022-12-16T01:56:04;96867.31;;;8.06;100.00
7614;BME280;3848;42.016;23.098;2022-12-16T01:58:33;96862.25;;;8.09;100.00
7614;BME280;3848;42.016;23.098;2022-12-16T02:01:05;96857.19;;;8.06;100.00
7614;BME280;3848;42.016;23.098;2022-12-16T02:03:35;96864.78;;;8.06;100.00
7614;BME280;3848;42.016;23.098;2022-12-16T02:06:02;96858.03;;;8.06;100.00
7614;BME280;3848;42.016;23.098;2022-12-16T02:08:29;96863.09;;;8.09;100.00
7614;BME280;3848;42.016;23.098;2022-12-16T02:11:09;96878.31;;;7.95;100.00
7614;BME280;3848;42.016;23.098;2022-12-16T02:13:50;96879.97;;;8.03;100.00
7614;BME280;3848;42.016;23.098;2022-12-16T02:16:25;96873.25;;;8.00;100.00
7614;BME280;3848;42.016;23.098;2022-12-16T02:19:01;96869.00;;;8.05;100.00
7614;BME280;3848;42.016;23.098;2022-12-16T02:21:45;96872.38;;;8.06;100.00
7614;BME280;3848;42.016;23.098;2022-12-16T02:24:47;96869.84;;;8.07;100.00
7614;BME280;3848;42.016;23.098;2022-12-16T02:27:38;96860.59;;;8.02;100.00
7614;BME280;3848;42.016;23.098;2022-12-16T02:33:47;96880.84;;;7.97;100.00
7614;BME280;3848;42.016;23.098;2022-12-16T02:36:24;96860.63;;;7.85;100.00
7614;BME280;3848;42.016;23.098;2022-12-16T02:38:58;96880.84;;;7.99;100.00
7614;BME280;3848;42.016;23.098;2022-12-16T02:41:32;96865.69;;;7.92;100.00
7614;BME280;3848;42.016;23.098;2022-12-16T02:44:05;96872.41;;;7.97;100.00
7614;BME280;3848;42.016;23.098;2022-12-16T02:46:39;96876.63;;;7.99;100.00
7614;BME280;3848;42.016;23.098;2022-12-16T02:49:44;96877.47;;;8.00;100.00
7614;BME280;3848;42.016;23.098;2022-12-16T02:51:57;96877.44;;;8.03;100.00
7614;BME280;3848;42.016;23.098;2022-12-16T02:54:25;96881.66;;;8.05;100.00
7614;BME280;3848;42.016;23.098;2022-12-16T02:57:01;96890.09;;;8.07;100.00
7614;BME280;3848;42.016;23.098;2022-12-16T02:59:38;96897.69;;;8.03;100.00
7614;BME280;3848;42.016;23.098;2022-12-16T03:02:10;96897.69;;;8.00;100.00
7614;BME280;3848;42.016;23.098;2022-12-16T03:04:41;96901.06;;;8.02;100.00
7614;BME280;3848;42.016;23.098;2022-12-16T03:07:13;96905.28;;;8.03;100.00
7614;BME280;3848;42.016;23.098;2022-12-16T03:09:42;96890.09;;;8.00;100.00
7614;BME280;3848;42.016;23.098;2022-12-16T03:12:13;96869.88;;;7.86;100.00
7614;BME280;3848;42.016;23.098;2022-12-16T03:14:48;96872.41;;;7.97;100.00
7614;BME280;3848;42.016;23.098;2022-12-16T03:17:18;96870.72;;;7.94;100.00
7614;BME280;3848;42.016;23.098;2022-12-16T03:19:49;96882.53;;;7.93;100.00
7614;BME280;3848;42.016;23.098;2022-12-16T03:22:24;96865.66;;;7.89;100.00
7614;BME280;3848;42.016;23.098;2022-12-16T03:24:54;96877.47;;;7.93;100.00
7614;BME280;3848;42.016;23.098;2022-12-16T03:27:26;96874.09;;;8.01;100.00
7614;BME280;3848;42.016;23.098;2022-12-16T03:30:00;96875.78;;;7.99;100.00
7614;BME280;3848;42.016;23.098;2022-12-16T03:32:35;96876.63;;;7.99;100.00
7614;BME280;3848;42.016;23.098;2022-12-16T03:35:10;96884.19;;;8.04;100.00
7614;BME280;3848;42.016;23.098;2022-12-16T03:37:41;96866.44;;;8.10;100.00
7614;BME280;3848;42.016;23.098;2022-12-16T03:40:11;96810.88;;;7.85;100.00
7614;BME280;3848;42.016;23.098;2022-12-16T03:42:40;96840.31;;;8.15;100.00
7614;BME280;3848;42.016;23.098;2022-12-16T03:45:12;96843.69;;;8.16;100.00
7614;BME280;3848;42.016;23.098;2022-12-16T03:47:41;96841.16;;;8.16;100.00
7614;BME280;3848;42.016;23.098;2022-12-16T03:50:08;96836.91;;;8.19;100.00
7614;BME280;3848;42.016;23.098;2022-12-16T03:52:35;96836.94;;;8.12;100.00
7614;BME280;3848;42.016;23.098;2022-12-16T03:55:03;96847.03;;;8.12;100.00
7614;BME280;3848;42.016;23.098;2022-12-16T03:57:30;96826.84;;;8.06;100.00
7614;BME280;3848;42.016;23.098;2022-12-16T03:59:57;96856.31;;;8.19;100.00
7614;BME280;3848;42.016;23.098;2022-12-16T04:02:24;96872.31;;;8.24;100.00
7614;BME280;3848;42.016;23.098;2022-12-16T04:04:50;96891.75;;;8.20;100.00
7614;BME280;3848;42.016;23.098;2022-12-16T04:07:17;96878.25;;;8.20;100.00
7614;BME280;3848;42.016;23.098;2022-12-16T04:09:49;96879.06;;;8.25;100.00
7614;BME280;3848;42.016;23.098;2022-12-16T04:12:17;96869.00;;;8.16;100.00
7614;BME280;3848;42.016;23.098;2022-12-16T04:15:02;96875.69;;;8.29;100.00
7614;BME280;3848;42.016;23.098;2022-12-16T04:17:58;96879.06;;;8.37;100.00
7614;BME280;3848;42.016;23.098;2022-12-16T04:20:45;96856.22;;;8.54;100.00
7614;BME280;3848;42.016;23.098;2022-12-16T04:23:31;96879.75;;;8.73;100.00
7614;BME280;3848;42.016;23.098;2022-12-16T04:26:17;96887.41;;;8.64;100.00
7614;BME280;3848;42.016;23.098;2022-12-16T04:28:45;96887.31;;;8.80;100.00
7614;BME280;3848;42.016;23.098;2022-12-16T04:31:12;96887.88;;;9.30;100.00
7614;BME280;3848;42.016;23.098;2022-12-16T04:33:39;96870.91;;;9.36;100.00
7614;BME280;3848;42.016;23.098;2022-12-16T04:36:24;96885.22;;;9.45;100.00
7614;BME280;3848;42.016;23.098;2022-12-16T04:39:17;96895.41;;;9.42;100.00
7614;BME280;3848;42.016;23.098;2022-12-16T04:42:01;96908.03;;;9.48;100.00
7614;BME280;3848;42.016;23.098;2022-12-16T04:44:46;96908.13;;;9.33;100.00
7614;BME280;3848;42.016;23.098;2022-12-16T04:47:30;96905.66;;;9.25;100.00
7614;BME280;3848;42.016;23.098;2022-12-16T04:50:15;96914.16;;;9.16;100.00
7614;BME280;3848;42.016;23.098;2022-12-16T04:52:59;96920.16;;;9.02;100.00
7614;BME280;3848;42.016;23.098;2022-12-16T04:55:43;96919.31;;;8.95;100.00
7614;BME280;3848;42.016;23.098;2022-12-16T04:58:27;96921.00;;;8.95;100.00
7614;BME280;3848;42.016;23.098;2022-12-16T05:01:12;96918.59;;;8.79;100.00
7614;BME280;3848;42.016;23.098;2022-12-16T05:03:56;96921.97;;;8.71;100.00
7614;BME280;3848;42.016;23.098;2022-12-16T05:06:40;96922.84;;;8.64;100.00
7614;BME280;3848;42.016;23.098;2022-12-16T05:09:24;96917.81;;;8.61;100.00
7614;BME280;3848;42.016;23.098;2022-12-16T05:12:08;96889.13;;;8.49;100.00
7614;BME280;3848;42.016;23.098;2022-12-16T05:14:52;96900.09;;;8.53;100.00
7614;BME280;3848;42.016;23.098;2022-12-16T05:17:38;96907.72;;;8.45;100.00
7614;BME280;3848;42.016;23.098;2022-12-16T05:20:22;96905.22;;;8.42;100.00
7614;BME280;3848;42.016;23.098;2022-12-16T05:23:06;96893.38;;;8.44;100.00
7614;BME280;3848;42.016;23.098;2022-12-16T05:25:50;96881.56;;;8.33;100.00
7614;BME280;3848;42.016;23.098;2022-12-16T05:28:34;96895.09;;;8.41;100.00
7614;BME280;3848;42.016;23.098;2022-12-16T05:31:18;96897.63;;;8.33;100.00
7614;BME280;3848;42.016;23.098;2022-12-16T05:34:04;96906.94;;;8.36;100.00
7614;BME280;3848;42.016;23.098;2022-12-16T05:36:48;96925.50;;;8.38;100.00
7614;BME280;3848;42.016;23.098;2022-12-16T05:39:33;96930.50;;;8.32;100.00
7614;BME280;3848;42.016;23.098;2022-12-16T05:42:17;96932.25;;;8.37;100.00
7614;BME280;3848;42.016;23.098;2022-12-16T05:45:00;96944.03;;;8.40;100.00
7614;BME280;3848;42.016;23.098;2022-12-16T05:47:56;96949.13;;;8.34;100.00
7614;BME280;3848;42.016;23.098;2022-12-16T05:50:41;96933.06;;;8.27;100.00
7614;BME280;3848;42.016;23.098;2022-12-16T05:53:25;96955.88;;;8.35;100.00
7614;BME280;3848;42.016;23.098;2022-12-16T05:56:09;96946.59;;;8.37;100.00
7614;BME280;3848;42.016;23.098;2022-12-16T05:58:53;96912.00;;;8.11;100.00
7614;BME280;3848;42.016;23.098;2022-12-16T06:01:38;96961.75;;;8.44;100.00
7614;BME280;3848;42.016;23.098;2022-12-16T06:04:22;96961.75;;;8.41;100.00
7614;BME280;3848;42.016;23.098;2022-12-16T06:07:07;96971.88;;;8.43;100.00
7614;BME280;3848;42.016;23.098;2022-12-16T06:09:52;96970.19;;;8.42;100.00
7614;BME280;3848;42.016;23.098;2022-12-16T06:12:36;96966.81;;;8.41;100.00
7614;BME280;3848;42.016;23.098;2022-12-16T06:15:20;96982.84;;;8.46;100.00
7614;BME280;3848;42.016;23.098;2022-12-16T06:18:04;96984.53;;;8.46;100.00
7614;BME280;3848;42.016;23.098;2022-12-16T06:20:48;97000.56;;;8.46;100.00
7614;BME280;3848;42.016;23.098;2022-12-16T06:23:34;97011.53;;;8.45;100.00
7614;BME280;3848;42.016;23.098;2022-12-16T06:26:18;97009.00;;;8.47;100.00
7614;BME280;3848;42.016;23.098;2022-12-16T06:29:02;96998.00;;;8.51;100.00
7614;BME280;3848;42.016;23.098;2022-12-16T06:31:46;96994.63;;;8.52;100.00
7614;BME280;3848;42.016;23.098;2022-12-16T06:34:30;97004.75;;;8.61;100.00
7614;BME280;3848;42.016;23.098;2022-12-16T06:37:14;96989.56;;;8.64;100.00
7614;BME280;3848;42.016;23.098;2022-12-16T06:40:00;97012.34;;;8.75;100.00
7614;BME280;3848;42.016;23.098;2022-12-16T06:42:45;96995.44;;;8.71;100.00
7614;BME280;3848;42.016;23.098;2022-12-16T06:45:29;97007.22;;;8.81;100.00
7614;BME280;3848;42.016;23.098;2022-12-16T06:48:13;97014.81;;;8.84;100.00
7614;BME280;3848;42.016;23.098;2022-12-16T06:51:08;96971.00;;;8.61;100.00
7614;BME280;3848;42.016;23.098;2022-12-16T06:53:52;97002.13;;;8.92;100.00
7614;BME280;3848;42.016;23.098;2022-12-16T06:56:38;97013.94;;;8.99;100.00
7614;BME280;3848;42.016;23.098;2022-12-16T06:59:22;97019.00;;;8.97;100.00
7614;BME280;3848;42.016;23.098;2022-12-16T07:02:02;97020.66;;;9.04;100.00
7614;BME280;3848;42.016;23.098;2022-12-16T07:04:47;97002.88;;;9.12;100.00
7614;BME280;3848;42.016;23.098;2022-12-16T07:07:31;96994.44;;;9.08;100.00
7614;BME280;3848;42.016;23.098;2022-12-16T07:10:15;96993.56;;;9.22;100.00
7614;BME280;3848;42.016;23.098;2022-12-16T07:13:00;96980.78;;;9.34;100.00
7614;BME280;3848;42.016;23.098;2022-12-16T07:15:45;96968.88;;;9.50;100.00
7614;BME280;3848;42.016;23.098;2022-12-16T07:18:29;96960.38;;;9.60;100.00
7614;BME280;3848;42.016;23.098;2022-12-16T07:21:13;96967.91;;;9.67;100.00
7614;BME280;3848;42.016;23.098;2022-12-16T07:23:58;96974.59;;;9.77;100.00
7614;BME280;3848;42.016;23.098;2022-12-16T07:26:42;96984.72;;;9.82;100.00
7614;BME280;3848;42.016;23.098;2022-12-16T07:29:27;96983.81;;;9.88;100.00
7614;BME280;3848;42.016;23.098;2022-12-16T07:32:12;96986.38;;;9.88;100.00
7614;BME280;3848;42.016;23.098;2022-12-16T07:34:56;96983.72;;;9.98;100.00
7614;BME280;3848;42.016;23.098;2022-12-16T07:37:40;96979.47;;;10.03;100.00
7614;BME280;3848;42.016;23.098;2022-12-16T07:40:24;96981.88;;;10.17;100.00
7614;BME280;3848;42.016;23.098;2022-12-16T07:43:08;96975.13;;;10.15;100.00
7614;BME280;3848;42.016;23.098;2022-12-16T07:45:54;96975.03;;;10.30;100.00
7614;BME280;3848;42.016;23.098;2022-12-16T07:48:38;96968.16;;;10.39;100.00
7614;BME280;3848;42.016;23.098;2022-12-16T07:51:22;96968.00;;;10.55;100.00
7614;BME280;3848;42.016;23.098;2022-12-16T07:54:06;96964.53;;;10.63;100.00
7614;BME280;3848;42.016;23.098;2022-12-16T07:56:51;96958.38;;;10.81;100.00
7614;BME280;3848;42.016;23.098;2022-12-16T07:59:35;96968.38;;;10.96;100.00
7614;BME280;3848;42.016;23.098;2022-12-16T08:02:20;96969.13;;;11.06;100.00
7614;BME280;3848;42.016;23.098;2022-12-16T08:05:04;96968.97;;;11.15;100.00
7614;BME280;3848;42.016;23.098;2022-12-16T08:07:48;96960.78;;;11.56;100.00
7614;BME280;3848;42.016;23.098;2022-12-16T08:10:32;96960.34;;;11.87;100.00
7614;BME280;3848;42.016;23.098;2022-12-16T08:13:16;96944.72;;;12.07;100.00
7614;BME280;3848;42.016;23.098;2022-12-16T08:16:00;96946.13;;;12.25;100.00
7614;BME280;3848;42.016;23.098;2022-12-16T08:18:46;96937.53;;;12.32;100.00
7614;BME280;3848;42.016;23.098;2022-12-16T08:21:30;96955.38;;;12.30;100.00
7614;BME280;3848;42.016;23.098;2022-12-16T08:24:14;96932.19;;;12.44;100.00
7614;BME280;3848;42.016;23.098;2022-12-16T08:26:58;96947.16;;;12.61;100.00
7614;BME280;3848;42.016;23.098;2022-12-16T08:29:42;96938.66;;;12.62;100.00
7614;BME280;3848;42.016;23.098;2022-12-16T08:32:27;96940.22;;;12.67;100.00
7614;BME280;3848;42.016;23.098;2022-12-16T08:35:12;96943.56;;;13.14;100.00
7614;BME280;3848;42.016;23.098;2022-12-16T08:37:56;96948.31;;;14.03;100.00
7614;BME280;3848;42.016;23.098;2022-12-16T08:40:42;96953.56;;;14.66;100.00
7614;BME280;3848;42.016;23.098;2022-12-16T08:43:29;96949.84;;;14.76;100.00
7614;BME280;3848;42.016;23.098;2022-12-16T08:46:16;96956.03;;;14.98;100.00
7614;BME280;3848;42.016;23.098;2022-12-16T08:49:00;96958.66;;;15.26;100.00
7614;BME280;3848;42.016;23.098;2022-12-16T08:51:46;96965.50;;;15.53;100.00
7614;BME280;3848;42.016;23.098;2022-12-16T08:54:30;96970.41;;;15.61;100.00
7614;BME280;3848;42.016;23.098;2022-12-16T08:57:14;96973.97;;;15.85;100.00
7614;BME280;3848;42.016;23.098;2022-12-16T08:59:58;96966.53;;;16.04;100.00
7614;BME280;3848;42.016;23.098;2022-12-16T09:02:52;96974.16;;;16.32;100.00
7614;BME280;3848;42.016;23.098;2022-12-16T09:05:44;96968.34;;;16.52;100.00
7614;BME280;3848;42.016;23.098;2022-12-16T09:08:30;96967.19;;;16.85;100.00
7614;BME280;3848;42.016;23.098;2022-12-16T09:11:25;96948.41;;;17.53;100.00
7614;BME280;3848;42.016;23.098;2022-12-16T09:14:10;96947.53;;;18.39;100.00
7614;BME280;3848;42.016;23.098;2022-12-16T09:16:54;96937.34;;;18.97;100.00
7614;BME280;3848;42.016;23.098;2022-12-16T09:19:38;96938.38;;;19.30;100.00
7614;BME280;3848;42.016;23.098;2022-12-16T09:22:22;96923.66;;;19.70;100.00
7614;BME280;3848;42.016;23.098;2022-12-16T09:25:08;96929.22;;;20.14;100.00
7614;BME280;3848;42.016;23.098;2022-12-16T09:27:52;96920.88;;;19.92;100.00
7614;BME280;3848;42.016;23.098;2022-12-16T09:30:36;96917.94;;;19.82;100.00
7614;BME280;3848;42.016;23.098;2022-12-16T09:33:20;96918.56;;;20.04;100.00
7614;BME280;3848;42.016;23.098;2022-12-16T09:36:04;96906.09;;;20.13;100.00
7614;BME280;3848;42.016;23.098;2022-12-16T09:38:49;96896.47;;;19.82;100.00
7614;BME280;3848;42.016;23.098;2022-12-16T09:41:40;96897.69;;;19.56;100.00
7614;BME280;3848;42.016;23.098;2022-12-16T09:44:35;96887.94;;;19.97;100.00
7614;BME280;3848;42.016;23.098;2022-12-16T09:47:27;96868.06;;;19.64;100.00
7614;BME280;3848;42.016;23.098;2022-12-16T09:50:19;96887.03;;;19.63;100.00
7614;BME280;3848;42.016;23.098;2022-12-16T09:53:07;96892.91;;;19.84;100.00
7614;BME280;3848;42.016;23.098;2022-12-16T09:56:04;96885.00;;;19.87;100.00
7614;BME280;3848;42.016;23.098;2022-12-16T09:58:53;96891.50;;;19.77;100.00
7614;BME280;3848;42.016;23.098;2022-12-16T10:01:39;96887.28;;;20.10;100.00
7614;BME280;3848;42.016;23.098;2022-12-16T10:04:24;96868.97;;;20.83;100.00
7614;BME280;3848;42.016;23.098;2022-12-16T10:07:16;96878.72;;;21.09;98.00
7614;BME280;3848;42.016;23.098;2022-12-16T10:10:10;96875.88;;;21.14;97.75
7614;BME280;3848;42.016;23.098;2022-12-16T10:13:04;96874.41;;;21.87;90.61
7614;BME280;3848;42.016;23.098;2022-12-16T10:15:57;96881.19;;;21.74;88.87
7614;BME280;3848;42.016;23.098;2022-12-16T10:18:49;96881.13;;;21.59;88.14
7614;BME280;3848;42.016;23.098;2022-12-16T10:21:44;96845.28;;;21.38;92.06
7614;BME280;3848;42.016;23.098;2022-12-16T10:24:42;96872.19;;;22.25;86.19
7614;BME280;3848;42.016;23.098;2022-12-16T10:27:33;96876.44;;;22.12;85.08
7614;BME280;3848;42.016;23.098;2022-12-16T10:30:20;96846.31;;;21.95;86.87
7614;BME280;3848;42.016;23.098;2022-12-16T10:33:08;96852.59;;;22.78;83.87
7614;BME280;3848;42.016;23.098;2022-12-16T10:35:55;96857.78;;;22.78;77.92
7614;BME280;3848;42.016;23.098;2022-12-16T10:38:42;96841.50;;;22.47;82.46
7614;BME280;3848;42.016;23.098;2022-12-16T10:41:31;96848.72;;;22.57;80.80
7614;BME280;3848;42.016;23.098;2022-12-16T10:44:22;96837.91;;;23.34;75.02
7614;BME280;3848;42.016;23.098;2022-12-16T10:47:08;96844.81;;;23.06;72.62
7614;BME280;3848;42.016;23.098;2022-12-16T10:49:57;96837.44;;;22.29;77.51
7614;BME280;3848;42.016;23.098;2022-12-16T10:52:48;96859.63;;;22.90;74.48
7614;BME280;3848;42.016;23.098;2022-12-16T10:55:41;96857.91;;;22.91;71.02
7614;BME280;3848;42.016;23.098;2022-12-16T10:58:36;96867.88;;;22.40;75.30
7614;BME280;3848;42.016;23.098;2022-12-16T11:01:27;96872.28;;;21.94;81.04
7614;BME280;3848;42.016;23.098;2022-12-16T11:04:28;96860.75;;;22.43;79.48
7614;BME280;3848;42.016;23.098;2022-12-16T11:07:39;96873.59;;;22.01;81.13
7614;BME280;3848;42.016;23.098;2022-12-16T11:10:35;96881.63;;;21.66;85.66
7614;BME280;3848;42.016;23.098;2022-12-16T11:13:22;96867.22;;;21.92;82.24
7614;BME280;3848;42.016;23.098;2022-12-16T11:16:13;96873.81;;;21.82;83.23
7614;BME280;3848;42.016;23.098;2022-12-16T11:18:58;96885.75;;;21.39;87.92
7614;BME280;3848;42.016;23.098;2022-12-16T11:22:04;96876.78;;;21.60;86.86
7614;BME280;3848;42.016;23.098;2022-12-16T11:25:05;96866.38;;;21.91;84.75
7614;BME280;3848;42.016;23.098;2022-12-16T11:27:50;96853.97;;;21.52;85.51
7614;BME280;3848;42.016;23.098;2022-12-16T11:30:34;96862.72;;;21.50;87.20
7614;BME280;3848;42.016;23.098;2022-12-16T11:33:23;96824.56;;;21.69;85.60
7614;BME280;3848;42.016;23.098;2022-12-16T11:36:21;96860.06;;;21.36;88.90
7614;BME280;3848;42.016;23.098;2022-12-16T11:39:06;96864.13;;;21.08;92.53
7614;BME280;3848;42.016;23.098;2022-12-16T11:42:00;96877.59;;;20.82;99.01
7614;BME280;3848;42.016;23.098;2022-12-16T11:44:48;96876.22;;;20.43;100.00
7614;BME280;3848;42.016;23.098;2022-12-16T11:47:36;96874.00;;;20.01;100.00
7614;BME280;3848;42.016;23.098;2022-12-16T11:50:24;96868.06;;;19.64;100.00
7614;BME280;3848;42.016;23.098;2022-12-16T11:53:24;96874.31;;;19.41;100.00
7614;BME280;3848;42.016;23.098;2022-12-16T11:56:11;96865.78;;;19.22;100.00
7614;BME280;3848;42.016;23.098;2022-12-16T11:59:01;96859.03;;;19.01;100.00
7614;BME280;3848;42.016;23.098;2022-12-16T12:01:51;96861.19;;;18.91;100.00
7614;BME280;3848;42.016;23.098;2022-12-16T12:04:36;96864.03;;;18.66;100.00
7614;BME280;3848;42.016;23.098;2022-12-16T12:07:24;96868.16;;;18.50;100.00
7614;BME280;3848;42.016;23.098;2022-12-16T12:10:23;96863.03;;;18.29;100.00
7614;BME280;3848;42.016;23.098;2022-12-16T12:13:20;96842.47;;;18.09;100.00
7614;BME280;3848;42.016;23.098;2022-12-16T12:16:15;96853.56;;;17.91;100.00
7614;BME280;3848;42.016;23.098;2022-12-16T12:19:04;96853.97;;;17.80;100.00
7614;BME280;3848;42.016;23.098;2022-12-16T12:21:58;96855.22;;;17.72;100.00
7614;BME280;3848;42.016;23.098;2022-12-16T12:24:49;96835.75;;;17.64;100.00
7614;BME280;3848;42.016;23.098;2022-12-16T12:27:42;96841.41;;;17.52;100.00
7614;BME280;3848;42.016;23.098;2022-12-16T12:30:32;96846.31;;;17.36;100.00
7614;BME280;3848;42.016;23.098;2022-12-16T12:33:30;96831.91;;;17.32;100.00
7614;BME280;3848;42.016;23.098;2022-12-16T12:36:23;96840.41;;;17.34;100.00
7614;BME280;3848;42.016;23.098;2022-12-16T12:39:18;96842.91;;;17.36;100.00
7614;BME280;3848;42.016;23.098;2022-12-16T12:42:22;96836.16;;;17.33;100.00
7614;BME280;3848;42.016;23.098;2022-12-16T12:45:23;96854.19;;;17.32;100.00
7614;BME280;3848;42.016;23.098;2022-12-16T12:48:15;96835.16;;;17.16;100.00
7614;BME280;3848;42.016;23.098;2022-12-16T12:51:05;96845.94;;;17.24;100.00
7614;BME280;3848;42.016;23.098;2022-12-16T12:53:57;96838.25;;;17.24;100.00
7614;BME280;3848;42.016;23.098;2022-12-16T12:56:48;96850.94;;;17.27;100.00
7614;BME280;3848;42.016;23.098;2022-12-16T12:59:42;96849.34;;;17.24;100.00
7614;BME280;3848;42.016;23.098;2022-12-16T13:02:37;96841.22;;;17.35;100.00
7614;BME280;3848;42.016;23.098;2022-12-16T13:05:26;96840.97;;;17.41;100.00
7614;BME280;3848;42.016;23.098;2022-12-16T13:08:34;96841.94;;;17.38;100.00
7614;BME280;3848;42.016;23.098;2022-12-16T13:11:24;96841.28;;;17.33;100.00
7614;BME280;3848;42.016;23.098;2022-12-16T13:17:29;96855.75;;;17.14;100.00
7614;BME280;3848;42.016;23.098;2022-12-16T13:20:35;96844.81;;;17.09;100.00
7614;BME280;3848;42.016;23.098;2022-12-16T13:23:28;96846.84;;;17.01;100.00
7614;BME280;3848;42.016;23.098;2022-12-16T13:26:16;96790.84;;;16.67;100.00
7614;BME280;3848;42.016;23.098;2022-12-16T13:29:17;96839.25;;;16.98;100.00
7614;BME280;3848;42.016;23.098;2022-12-16T13:32:13;96845.75;;;17.06;100.00
7614;BME280;3848;42.016;23.098;2022-12-16T13:34:59;96861.41;;;17.00;100.00
7614;BME280;3848;42.016;23.098;2022-12-16T13:37:50;96867.13;;;17.07;100.00
7614;BME280;3848;42.016;23.098;2022-12-16T13:40:48;96867.81;;;17.12;100.00
7614;BME280;3848;42.016;23.098;2022-12-16T13:43:47;96871.28;;;17.11;100.00
7614;BME280;3848;42.016;23.098;2022-12-16T13:46:40;96879.03;;;17.10;100.00
7614;BME280;3848;42.016;23.098;2022-12-16T13:49:45;96863.91;;;17.02;100.00
7614;BME280;3848;42.016;23.098;2022-12-16T13:52:46;96888.03;;;16.98;100.00
7614;BME280;3848;42.016;23.098;2022-12-16T13:55:34;96883.84;;;16.95;100.00
7614;BME280;3848;42.016;23.098;2022-12-16T13:58:28;96898.34;;;16.96;100.00
7614;BME280;3848;42.016;23.098;2022-12-16T14:01:20;96907.72;;;16.97;100.00
7614;BME280;3848;42.016;23.098;2022-12-16T14:04:08;96876.69;;;16.80;100.00
7614;BME280;3848;42.016;23.098;2022-12-16T14:06:54;96895.91;;;16.93;100.00
7614;BME280;3848;42.016;23.098;2022-12-16T14:09:42;96900.13;;;16.94;100.00
7614;BME280;3848;42.016;23.098;2022-12-16T14:12:51;96897.00;;;16.86;100.00
7614;BME280;3848;42.016;23.098;2022-12-16T14:15:47;96896.97;;;16.88;100.00
7614;BME280;3848;42.016;23.098;2022-12-16T14:18:44;96903.84;;;16.87;100.00
7614;BME280;3848;42.016;23.098;2022-12-16T14:21:33;96899.47;;;16.89;100.00
7614;BME280;3848;42.016;23.098;2022-12-16T14:24:23;96896.03;;;16.67;100.00
7614;BME280;3848;42.016;23.098;2022-12-16T14:27:14;96899.91;;;16.77;100.00
7614;BME280;3848;42.016;23.098;2022-12-16T14:30:00;96921.81;;;16.87;100.00
7614;BME280;3848;42.016;23.098;2022-12-16T14:32:44;96922.34;;;16.72;100.00
7614;BME280;3848;42.016;23.098;2022-12-16T14:35:30;96930.94;;;16.71;100.00